createdAt,value
2023-02-14T00:00:06.775Z,12.82
2023-02-14T00:00:21.956Z,12.63
2023-02-14T00:00:33.879Z,12.48
2023-02-14T00:00:45.900Z,13.02
2023-02-14T00:00:58.150Z,13.35
2023-02-14T00:01:12.003Z,13.65
2023-02-14T00:01:24.176Z,12.60
2023-02-14T00:01:36.729Z,12.23
2023-02-14T00:01:49.389Z,12.50
2023-02-14T00:02:01.336Z,13.05
2023-02-14T00:02:13.444Z,13.15
2023-02-14T00:02:25.452Z,13.35
2023-02-14T00:02:37.484Z,13.35
2023-02-14T00:02:49.910Z,13.43
2023-02-14T00:03:01.897Z,13.60
2023-02-14T00:03:14.892Z,13.70
2023-02-14T00:03:26.813Z,13.02
2023-02-14T00:03:39.237Z,12.77
2023-02-14T00:03:51.223Z,12.85
2023-02-14T00:04:04.626Z,13.27
2023-02-14T00:04:18.595Z,13.07
2023-02-14T00:04:30.709Z,12.90
2023-02-14T00:04:44.816Z,12.80
2023-02-14T00:04:56.816Z,12.73
2023-02-14T00:05:08.885Z,12.83
2023-02-14T00:05:20.897Z,13.20
2023-02-14T00:05:32.959Z,13.57
2023-02-14T00:05:44.904Z,13.25
2023-02-14T00:05:56.812Z,12.90
2023-02-14T00:06:13.990Z,12.55
2023-02-14T00:06:26.234Z,12.70
2023-02-14T00:06:38.974Z,12.88
2023-02-14T00:06:50.925Z,13.32
2023-02-14T00:07:02.870Z,13.25
2023-02-14T00:07:14.926Z,13.27
2023-02-14T00:07:26.921Z,13.13
2023-02-14T00:07:38.850Z,12.82
2023-02-14T00:07:50.833Z,12.75
2023-02-14T00:08:02.865Z,12.52
2023-02-14T00:08:16.129Z,12.75
2023-02-14T00:08:28.051Z,12.85
2023-02-14T00:08:44.116Z,12.80
2023-02-14T00:08:56.137Z,13.07
2023-02-14T00:09:19.825Z,13.45
2023-02-14T00:09:32.478Z,13.20
2023-02-14T00:09:44.448Z,13.00
2023-02-14T00:09:56.429Z,13.15
2023-02-14T00:10:09.544Z,13.20
2023-02-14T00:10:21.521Z,13.10
2023-02-14T00:10:33.479Z,12.77
2023-02-14T00:10:46.048Z,13.13
2023-02-14T00:10:58.241Z,13.50
2023-02-14T00:11:11.922Z,13.55
2023-02-14T00:11:23.875Z,13.20
2023-02-14T00:11:35.796Z,12.88
2023-02-14T00:11:47.743Z,12.73
2023-02-14T00:11:59.671Z,13.20
2023-02-14T00:12:11.669Z,13.38
2023-02-14T00:12:23.649Z,13.18
2023-02-14T00:12:36.172Z,12.75
2023-02-14T00:12:48.122Z,12.68
2023-02-14T00:13:00.037Z,12.77
2023-02-14T00:13:11.956Z,12.23
2023-02-14T00:13:23.941Z,12.75
2023-02-14T00:13:35.945Z,12.98
2023-02-14T00:14:07.214Z,13.25
2023-02-14T00:14:37.854Z,12.63
2023-02-14T00:15:08.298Z,13.10
2023-02-14T00:15:23.141Z,13.45
2023-02-14T00:15:35.104Z,13.05
2023-02-14T00:15:47.106Z,13.40
2023-02-14T00:15:59.153Z,13.13
2023-02-14T00:16:11.169Z,13.05
2023-02-14T00:16:23.202Z,13.07
2023-02-14T00:16:35.148Z,13.00
2023-02-14T00:16:47.213Z,12.85
2023-02-14T00:16:59.445Z,12.90
2023-02-14T00:17:11.411Z,13.13
2023-02-14T00:17:23.364Z,12.60
2023-02-14T00:17:35.315Z,12.18
2023-02-14T00:17:47.757Z,12.13
2023-02-14T00:17:59.920Z,12.68
2023-02-14T00:18:11.924Z,12.73
2023-02-14T00:18:43.889Z,12.82
2023-02-14T00:19:05.506Z,13.35
2023-02-14T00:19:19.252Z,13.48
2023-02-14T00:19:31.800Z,13.52
2023-02-14T00:19:43.876Z,13.45
2023-02-14T00:19:55.836Z,13.60
2023-02-14T00:20:08.598Z,13.68
2023-02-14T00:20:23.709Z,13.93
2023-02-14T00:20:36.925Z,14.07
2023-02-14T00:20:48.882Z,14.05
2023-02-14T00:21:00.953Z,13.75
2023-02-14T00:21:12.964Z,13.40
2023-02-14T00:21:24.892Z,13.32
2023-02-14T00:21:38.557Z,13.43
2023-02-14T00:21:51.131Z,13.43
2023-02-14T00:22:04.202Z,13.10
2023-02-14T00:22:19.190Z,12.75
2023-02-14T00:22:31.110Z,12.75
2023-02-14T00:22:43.139Z,12.90
2023-02-14T00:22:55.188Z,13.23
2023-02-14T00:23:07.114Z,13.32
2023-02-14T00:23:19.057Z,13.52
2023-02-14T00:23:32.216Z,13.18
2023-02-14T00:23:44.146Z,12.93
2023-02-14T00:23:56.059Z,12.95
2023-02-14T00:24:16.342Z,13.07
2023-02-14T00:24:28.657Z,12.70
2023-02-14T00:24:40.656Z,12.82
2023-02-14T00:24:52.617Z,12.80
2023-02-14T00:25:04.930Z,12.52
2023-02-14T00:25:17.145Z,12.95
2023-02-14T00:25:29.144Z,13.13
2023-02-14T00:25:41.049Z,13.27
2023-02-14T00:25:52.949Z,12.90
2023-02-14T00:26:05.054Z,12.57
2023-02-14T00:26:17.136Z,12.82
2023-02-14T00:26:29.104Z,13.02
2023-02-14T00:26:41.942Z,13.35
2023-02-14T00:26:54.406Z,13.25
2023-02-14T00:27:06.424Z,13.30
2023-02-14T00:27:18.374Z,13.38
2023-02-14T00:27:30.585Z,13.25
2023-02-14T00:27:42.706Z,13.30
2023-02-14T00:27:55.505Z,13.45
2023-02-14T00:28:07.454Z,13.65
2023-02-14T00:28:19.385Z,13.82
2023-02-14T00:28:31.329Z,13.73
2023-02-14T00:28:43.422Z,13.55
2023-02-14T00:28:55.342Z,13.20
2023-02-14T00:29:09.882Z,13.20
2023-02-14T00:29:28.067Z,13.30
2023-02-14T00:29:40.042Z,13.55
2023-02-14T00:29:52.125Z,13.57
2023-02-14T00:30:05.424Z,13.68
2023-02-14T00:30:17.465Z,13.35
2023-02-14T00:30:29.720Z,13.35
2023-02-14T00:30:41.938Z,13.73
2023-02-14T00:30:57.394Z,13.85
2023-02-14T00:31:09.790Z,13.18
2023-02-14T00:31:22.149Z,12.95
2023-02-14T00:31:34.964Z,13.57
2023-02-14T00:31:47.094Z,13.45
2023-02-14T00:32:00.282Z,13.68
2023-02-14T00:32:12.399Z,13.63
2023-02-14T00:32:24.373Z,13.57
2023-02-14T00:32:38.659Z,13.30
2023-02-14T00:32:50.637Z,13.70
2023-02-14T00:33:02.701Z,13.40
2023-02-14T00:33:14.649Z,13.27
2023-02-14T00:33:26.595Z,13.70
2023-02-14T00:33:38.611Z,13.52
2023-02-14T00:33:50.531Z,13.57
2023-02-14T00:34:02.991Z,13.88
2023-02-14T00:34:16.148Z,13.73
2023-02-14T00:34:29.036Z,13.85
2023-02-14T00:34:41.013Z,13.73
2023-02-14T00:34:52.997Z,13.52
2023-02-14T00:35:06.313Z,13.75
2023-02-14T00:35:18.356Z,13.20
2023-02-14T00:35:30.266Z,13.10
2023-02-14T00:35:42.208Z,13.07
2023-02-14T00:35:54.180Z,13.35
2023-02-14T00:36:07.177Z,13.55
2023-02-14T00:36:19.911Z,13.95
2023-02-14T00:36:31.962Z,13.77
2023-02-14T00:36:45.180Z,13.82
2023-02-14T00:36:57.128Z,14.40
2023-02-14T00:37:09.081Z,14.32
2023-02-14T00:37:21.654Z,13.65
2023-02-14T00:37:33.969Z,12.98
2023-02-14T00:37:47.298Z,13.00
2023-02-14T00:37:59.216Z,13.43
2023-02-14T00:38:11.127Z,13.32
2023-02-14T00:38:23.010Z,13.40
2023-02-14T00:38:35.098Z,13.45
2023-02-14T00:38:47.128Z,13.52
2023-02-14T00:38:59.076Z,13.60
2023-02-14T00:39:16.210Z,14.27
2023-02-14T00:39:28.294Z,13.60
2023-02-14T00:39:40.230Z,13.40
2023-02-14T00:39:52.234Z,13.40
2023-02-14T00:40:05.435Z,13.77
2023-02-14T00:40:17.392Z,13.40
2023-02-14T00:40:29.378Z,13.25
2023-02-14T00:40:41.320Z,13.00
2023-02-14T00:40:53.238Z,12.88
2023-02-14T00:41:05.420Z,13.32
2023-02-14T00:41:20.345Z,13.57
2023-02-14T00:41:33.130Z,13.55
2023-02-14T00:41:45.363Z,13.75
2023-02-14T00:41:57.324Z,13.23
2023-02-14T00:42:09.346Z,13.05
2023-02-14T00:42:21.253Z,13.27
2023-02-14T00:42:33.561Z,13.52
2023-02-14T00:42:45.527Z,13.65
2023-02-14T00:42:57.461Z,13.65
2023-02-14T00:43:09.357Z,13.75
2023-02-14T00:43:21.252Z,13.52
2023-02-14T00:43:33.203Z,13.55
2023-02-14T00:43:49.606Z,13.13
2023-02-14T00:44:02.404Z,13.13
2023-02-14T00:44:14.506Z,13.82
2023-02-14T00:44:26.434Z,13.77
2023-02-14T00:44:38.389Z,13.57
2023-02-14T00:44:50.359Z,13.35
2023-02-14T00:45:02.349Z,13.18
2023-02-14T00:45:14.504Z,13.60
2023-02-14T00:45:29.399Z,13.73
2023-02-14T00:45:44.267Z,13.35
2023-02-14T00:45:56.498Z,13.57
2023-02-14T00:46:08.479Z,13.25
2023-02-14T00:46:22.069Z,13.05
2023-02-14T00:46:35.146Z,13.35
2023-02-14T00:46:47.130Z,13.55
2023-02-14T00:46:59.060Z,13.75
2023-02-14T00:47:10.997Z,14.00
2023-02-14T00:47:22.988Z,13.88
2023-02-14T00:47:34.947Z,13.25
2023-02-14T00:47:46.928Z,13.25
2023-02-14T00:47:58.956Z,13.57
2023-02-14T00:48:10.861Z,13.45
2023-02-14T00:48:22.797Z,13.52
2023-02-14T00:48:34.757Z,13.48
2023-02-14T00:48:46.670Z,13.43
2023-02-14T00:48:58.687Z,13.43
2023-02-14T00:49:10.943Z,13.48
2023-02-14T00:49:22.923Z,13.90
2023-02-14T00:49:34.861Z,13.98
2023-02-14T00:49:48.753Z,14.15
2023-02-14T00:50:02.861Z,13.43
2023-02-14T00:50:17.874Z,13.48
2023-02-14T00:50:29.974Z,14.13
2023-02-14T00:50:41.863Z,14.02
2023-02-14T00:50:53.783Z,13.60
2023-02-14T00:51:05.735Z,13.60
2023-02-14T00:51:19.067Z,13.77
2023-02-14T00:51:31.685Z,13.55
2023-02-14T00:51:43.683Z,13.70
2023-02-14T00:51:58.419Z,13.80
2023-02-14T00:52:10.517Z,14.00
2023-02-14T00:52:22.548Z,13.95
2023-02-14T00:52:34.672Z,14.38
2023-02-14T00:52:46.661Z,13.98
2023-02-14T00:52:58.576Z,13.38
2023-02-14T00:53:10.638Z,13.40
2023-02-14T00:53:22.568Z,13.18
2023-02-14T00:53:35.173Z,13.25
2023-02-14T00:53:48.254Z,12.95
2023-02-14T00:54:00.575Z,13.02
2023-02-14T00:54:12.543Z,13.23
2023-02-14T00:54:24.719Z,13.55
2023-02-14T00:54:36.724Z,13.27
2023-02-14T00:54:48.767Z,13.27
2023-02-14T00:55:00.728Z,13.57
2023-02-14T00:55:12.726Z,14.18
2023-02-14T00:55:24.688Z,13.77
2023-02-14T00:55:36.618Z,13.50
2023-02-14T00:55:48.545Z,13.77
2023-02-14T00:56:00.641Z,14.23
2023-02-14T00:56:13.222Z,13.75
2023-02-14T00:56:25.182Z,13.70
2023-02-14T00:56:37.185Z,13.23
2023-02-14T00:56:49.111Z,13.23
2023-02-14T00:57:01.129Z,13.65
2023-02-14T00:57:13.081Z,14.07
2023-02-14T00:57:25.087Z,14.32
2023-02-14T00:57:39.682Z,14.30
2023-02-14T00:57:51.609Z,13.68
2023-02-14T00:58:03.648Z,13.05
2023-02-14T00:58:15.576Z,13.27
2023-02-14T00:58:28.119Z,13.75
2023-02-14T00:58:40.762Z,13.88
2023-02-14T00:58:52.736Z,14.07
2023-02-14T00:59:04.718Z,13.70
2023-02-14T00:59:16.687Z,13.60
2023-02-14T00:59:28.666Z,13.50
2023-02-14T00:59:40.598Z,13.55
2023-02-14T00:59:52.570Z,13.38
2023-02-14T01:00:06.090Z,13.82
2023-02-14T01:00:18.358Z,14.20
2023-02-14T01:00:30.371Z,14.25
2023-02-14T01:00:42.435Z,13.80
2023-02-14T01:00:54.519Z,13.55
2023-02-14T01:01:06.689Z,13.23
2023-02-14T01:01:19.555Z,13.40
2023-02-14T01:01:31.587Z,13.75
2023-02-14T01:01:43.548Z,13.75
2023-02-14T01:01:55.558Z,13.55
2023-02-14T01:02:07.554Z,13.55
2023-02-14T01:02:19.552Z,13.68
2023-02-14T01:02:31.546Z,13.90
2023-02-14T01:02:43.502Z,13.65
2023-02-14T01:02:55.620Z,13.75
2023-02-14T01:03:07.620Z,14.10
2023-02-14T01:03:19.920Z,13.70
2023-02-14T01:03:31.962Z,13.63
2023-02-14T01:03:44.001Z,13.25
2023-02-14T01:03:56.428Z,13.60
2023-02-14T01:04:08.855Z,13.60
2023-02-14T01:04:20.834Z,13.60
2023-02-14T01:04:32.792Z,13.55
2023-02-14T01:04:44.809Z,13.45
2023-02-14T01:04:56.755Z,13.30
2023-02-14T01:05:08.746Z,13.10
2023-02-14T01:05:20.733Z,13.07
2023-02-14T01:05:32.700Z,13.13
2023-02-14T01:05:44.769Z,13.50
2023-02-14T01:05:56.726Z,13.82
2023-02-14T01:06:08.942Z,13.80
2023-02-14T01:06:21.136Z,14.20
2023-02-14T01:06:33.119Z,13.85
2023-02-14T01:06:45.031Z,13.90
2023-02-14T01:06:56.985Z,13.63
2023-02-14T01:07:11.485Z,13.50
2023-02-14T01:07:23.456Z,13.30
2023-02-14T01:07:35.406Z,13.65
2023-02-14T01:07:47.480Z,13.73
2023-02-14T01:07:59.396Z,13.48
2023-02-14T01:08:11.343Z,13.27
2023-02-14T01:08:24.040Z,13.40
2023-02-14T01:08:35.990Z,13.80
2023-02-14T01:08:47.905Z,13.82
2023-02-14T01:09:00.190Z,13.70
2023-02-14T01:09:12.086Z,13.48
2023-02-14T01:09:24.114Z,13.20
2023-02-14T01:09:36.015Z,13.32
2023-02-14T01:09:48.046Z,13.65
2023-02-14T01:09:59.990Z,13.55
2023-02-14T01:10:12.444Z,13.13
2023-02-14T01:10:24.349Z,13.25
2023-02-14T01:10:37.237Z,13.38
2023-02-14T01:10:49.177Z,13.52
2023-02-14T01:11:13.762Z,13.13
2023-02-14T01:11:28.153Z,13.02
2023-02-14T01:11:41.668Z,13.07
2023-02-14T01:11:53.956Z,13.18
2023-02-14T01:12:06.056Z,13.02
2023-02-14T01:12:17.953Z,13.38
2023-02-14T01:12:29.871Z,13.73
2023-02-14T01:12:41.785Z,13.77
2023-02-14T01:12:53.806Z,13.48
2023-02-14T01:13:06.456Z,13.57
2023-02-14T01:13:19.505Z,14.00
2023-02-14T01:13:31.449Z,14.07
2023-02-14T01:13:44.856Z,13.55
2023-02-14T01:13:58.143Z,13.63
2023-02-14T01:14:10.132Z,13.60
2023-02-14T01:14:22.096Z,13.55
2023-02-14T01:14:34.054Z,14.10
2023-02-14T01:14:46.000Z,14.25
2023-02-14T01:14:57.987Z,13.57
2023-02-14T01:15:10.019Z,13.25
2023-02-14T01:15:22.474Z,13.30
2023-02-14T01:15:39.468Z,13.25
2023-02-14T01:15:52.015Z,13.23
2023-02-14T01:16:09.666Z,13.57
2023-02-14T01:16:24.298Z,13.82
2023-02-14T01:16:38.724Z,13.65
2023-02-14T01:16:50.846Z,13.82
2023-02-14T01:17:02.875Z,13.73
2023-02-14T01:17:14.805Z,13.68
2023-02-14T01:17:27.360Z,14.00
2023-02-14T01:17:39.294Z,14.10
2023-02-14T01:17:51.233Z,13.68
2023-02-14T01:18:03.253Z,14.13
2023-02-14T01:18:16.493Z,14.27
2023-02-14T01:18:28.417Z,13.98
2023-02-14T01:18:41.445Z,14.15
2023-02-14T01:18:53.724Z,14.20
2023-02-14T01:19:05.728Z,13.88
2023-02-14T01:19:17.672Z,14.13
2023-02-14T01:19:29.602Z,14.13
2023-02-14T01:19:42.476Z,14.15
2023-02-14T01:19:54.732Z,14.25
2023-02-14T01:20:07.560Z,13.65
2023-02-14T01:20:19.643Z,13.43
2023-02-14T01:20:31.715Z,13.63
2023-02-14T01:20:44.037Z,13.57
2023-02-14T01:20:55.983Z,14.20
2023-02-14T01:21:29.201Z,13.60
2023-02-14T01:21:41.616Z,13.68
2023-02-14T01:21:53.536Z,14.00
2023-02-14T01:22:05.485Z,14.30
2023-02-14T01:22:17.458Z,14.30
2023-02-14T01:22:29.351Z,14.18
2023-02-14T01:22:41.302Z,13.95
2023-02-14T01:22:53.264Z,13.77
2023-02-14T01:23:05.565Z,13.80
2023-02-14T01:23:17.494Z,13.90
2023-02-14T01:23:29.414Z,13.02
2023-02-14T01:23:44.956Z,13.30
2023-02-14T01:23:59.389Z,13.68
2023-02-14T01:24:13.106Z,13.65
2023-02-14T01:24:26.520Z,13.50
2023-02-14T01:24:38.463Z,13.65
2023-02-14T01:24:50.427Z,13.60
2023-02-14T01:25:02.343Z,13.77
2023-02-14T01:25:14.520Z,13.65
2023-02-14T01:25:26.700Z,13.38
2023-02-14T01:25:39.846Z,13.35
2023-02-14T01:25:51.742Z,13.38
2023-02-14T01:26:08.199Z,13.65
2023-02-14T01:26:21.605Z,13.82
2023-02-14T01:26:34.900Z,14.20
2023-02-14T01:26:46.877Z,14.02
2023-02-14T01:26:58.790Z,13.93
2023-02-14T01:27:10.756Z,13.82
2023-02-14T01:27:22.653Z,13.73
2023-02-14T01:27:34.553Z,13.90
2023-02-14T01:27:46.500Z,14.13
2023-02-14T01:27:58.506Z,13.95
2023-02-14T01:28:10.444Z,14.13
2023-02-14T01:28:22.469Z,14.40
2023-02-14T01:28:35.669Z,14.30
2023-02-14T01:28:47.892Z,13.98
2023-02-14T01:29:00.003Z,13.52
2023-02-14T01:29:11.988Z,13.52
2023-02-14T01:29:23.949Z,13.55
2023-02-14T01:29:36.007Z,13.82
2023-02-14T01:29:47.987Z,14.07
2023-02-14T01:30:00.099Z,14.30
2023-02-14T01:30:12.941Z,14.02
2023-02-14T01:30:25.504Z,14.05
2023-02-14T01:30:40.525Z,14.30
2023-02-14T01:30:52.498Z,14.43
2023-02-14T01:31:14.654Z,14.05
2023-02-14T01:31:29.461Z,13.85
2023-02-14T01:31:41.661Z,13.63
2023-02-14T01:31:53.750Z,13.52
2023-02-14T01:32:05.699Z,13.45
2023-02-14T01:32:17.779Z,13.80
2023-02-14T01:32:33.231Z,13.65
2023-02-14T01:32:45.395Z,13.40
2023-02-14T01:32:57.508Z,13.18
2023-02-14T01:33:09.568Z,13.18
2023-02-14T01:33:21.531Z,13.60
2023-02-14T01:33:33.574Z,14.35
2023-02-14T01:33:49.830Z,14.20
2023-02-14T01:34:02.167Z,13.63
2023-02-14T01:34:14.092Z,13.15
2023-02-14T01:34:26.019Z,13.15
2023-02-14T01:34:38.247Z,13.40
2023-02-14T01:34:50.222Z,13.13
2023-02-14T01:35:02.210Z,13.48
2023-02-14T01:35:14.314Z,13.68
2023-02-14T01:35:26.304Z,13.60
2023-02-14T01:35:38.705Z,13.57
2023-02-14T01:35:50.771Z,13.98
2023-02-14T01:36:03.099Z,13.98
2023-02-14T01:36:20.181Z,14.10
2023-02-14T01:36:41.149Z,14.07
2023-02-14T01:36:53.111Z,14.20
2023-02-14T01:37:04.993Z,14.18
2023-02-14T01:37:16.919Z,14.80
2023-02-14T01:37:30.554Z,14.27
2023-02-14T01:37:42.762Z,13.85
2023-02-14T01:37:54.949Z,13.65
2023-02-14T01:38:06.883Z,13.52
2023-02-14T01:38:18.797Z,13.20
2023-02-14T01:38:31.149Z,13.40
2023-02-14T01:38:43.247Z,14.27
2023-02-14T01:38:58.399Z,14.60
2023-02-14T01:39:15.105Z,14.25
2023-02-14T01:39:27.016Z,14.30
2023-02-14T01:39:39.332Z,14.45
2023-02-14T01:39:51.213Z,14.07
2023-02-14T01:40:04.769Z,13.88
2023-02-14T01:40:17.111Z,13.63
2023-02-14T01:40:29.025Z,13.57
2023-02-14T01:40:44.233Z,13.55
2023-02-14T01:40:56.889Z,13.70
2023-02-14T01:41:09.028Z,13.55
2023-02-14T01:41:22.049Z,13.40
2023-02-14T01:41:36.498Z,13.48
2023-02-14T01:41:48.668Z,13.90
2023-02-14T01:42:00.965Z,13.93
2023-02-14T01:42:12.918Z,13.80
2023-02-14T01:42:25.099Z,13.98
2023-02-14T01:42:37.536Z,13.80
2023-02-14T01:42:49.455Z,13.55
2023-02-14T01:43:01.449Z,13.77
2023-02-14T01:43:16.983Z,13.82
2023-02-14T01:43:28.927Z,13.57
2023-02-14T01:44:00.081Z,13.48
2023-02-14T01:44:14.691Z,13.90
2023-02-14T01:44:26.557Z,13.75
2023-02-14T01:44:38.465Z,13.63
2023-02-14T01:45:09.921Z,14.32
2023-02-14T01:45:25.620Z,14.95
2023-02-14T01:45:37.621Z,14.63
2023-02-14T01:45:49.742Z,13.57
2023-02-14T01:46:01.764Z,13.30
2023-02-14T01:46:13.769Z,13.20
2023-02-14T01:46:28.987Z,13.95
2023-02-14T01:46:42.474Z,14.35
2023-02-14T01:46:55.964Z,14.45
2023-02-14T01:47:10.695Z,14.25
2023-02-14T01:47:23.490Z,13.73
2023-02-14T01:47:40.639Z,13.70
2023-02-14T01:47:56.455Z,14.18
2023-02-14T01:48:09.787Z,14.10
2023-02-14T01:48:22.973Z,13.82
2023-02-14T01:48:34.963Z,14.07
2023-02-14T01:48:48.047Z,13.98
2023-02-14T01:49:07.979Z,14.20
2023-02-14T01:49:30.626Z,13.45
2023-02-14T01:49:52.519Z,13.70
2023-02-14T01:50:09.662Z,14.00
2023-02-14T01:50:27.647Z,14.07
2023-02-14T01:50:45.021Z,13.85
2023-02-14T01:50:57.399Z,14.32
2023-02-14T01:51:09.537Z,14.32
2023-02-14T01:51:25.268Z,13.88
2023-02-14T01:51:46.408Z,13.68
2023-02-14T01:52:04.448Z,13.95
2023-02-14T01:52:28.355Z,13.68
2023-02-14T01:53:11.774Z,13.90
2023-02-14T01:53:27.911Z,14.13
2023-02-14T01:53:39.958Z,14.10
2023-02-14T01:53:52.901Z,14.20
2023-02-14T01:54:08.430Z,14.13
2023-02-14T01:54:24.073Z,13.70
2023-02-14T01:54:40.969Z,13.45
2023-02-14T01:54:59.083Z,13.45
2023-02-14T01:55:18.996Z,13.23
2023-02-14T01:55:36.227Z,13.73
2023-02-14T01:55:57.747Z,13.75
2023-02-14T01:56:14.956Z,13.68
2023-02-14T01:56:34.207Z,13.95
2023-02-14T01:56:51.533Z,14.15
2023-02-14T01:57:08.607Z,13.95
2023-02-14T01:57:23.065Z,13.75
2023-02-14T01:57:51.784Z,13.52
2023-02-14T01:58:11.584Z,14.30
2023-02-14T01:58:28.329Z,14.38
2023-02-14T01:58:45.023Z,14.05
2023-02-14T01:59:01.243Z,14.00
2023-02-14T01:59:19.700Z,13.68
2023-02-14T01:59:37.494Z,13.52
2023-02-14T01:59:55.986Z,14.23
2023-02-14T02:00:28.024Z,14.25
2023-02-14T02:01:00.012Z,14.18
2023-02-14T02:01:17.535Z,14.55
2023-02-14T02:01:31.225Z,14.38
2023-02-14T02:01:45.050Z,14.10
2023-02-14T02:01:57.320Z,14.52
2023-02-14T02:02:10.334Z,14.65
2023-02-14T02:02:25.368Z,14.20
2023-02-14T02:02:37.382Z,13.70
2023-02-14T02:02:49.531Z,14.20
2023-02-14T02:03:04.033Z,14.48
2023-02-14T02:03:19.192Z,14.52
2023-02-14T02:03:52.969Z,14.27
2023-02-14T02:04:11.812Z,14.35
2023-02-14T02:04:30.317Z,14.15
2023-02-14T02:04:46.612Z,14.48
2023-02-14T02:04:58.653Z,14.65
2023-02-14T02:05:11.223Z,14.43
2023-02-14T02:05:23.804Z,14.68
2023-02-14T02:05:41.265Z,14.32
2023-02-14T02:05:59.218Z,13.93
2023-02-14T02:06:20.931Z,14.07
2023-02-14T02:06:37.968Z,14.18
2023-02-14T02:06:54.860Z,14.27
2023-02-14T02:07:11.625Z,14.45
2023-02-14T02:07:27.131Z,14.95
2023-02-14T02:07:39.233Z,15.13
2023-02-14T02:07:55.210Z,15.10
2023-02-14T02:08:07.322Z,14.43
2023-02-14T02:08:19.590Z,14.10
2023-02-14T02:08:34.942Z,15.00
2023-02-14T02:09:24.164Z,15.13
2023-02-14T02:09:45.129Z,14.93
2023-02-14T02:10:00.791Z,14.98
2023-02-14T02:10:12.701Z,15.52
2023-02-14T02:10:25.026Z,15.65
2023-02-14T02:10:36.929Z,15.20
2023-02-14T02:10:48.855Z,15.02
2023-02-14T02:11:01.157Z,14.80
2023-02-14T02:11:13.285Z,14.95
2023-02-14T02:11:26.375Z,14.98
2023-02-14T02:11:39.055Z,14.82
2023-02-14T02:11:54.117Z,14.95
2023-02-14T02:12:06.137Z,14.63
2023-02-14T02:12:18.284Z,14.13
2023-02-14T02:12:31.082Z,13.82
2023-02-14T02:12:43.712Z,14.27
2023-02-14T02:12:56.169Z,14.73
2023-02-14T02:13:14.556Z,14.95
2023-02-14T02:13:29.100Z,14.68
2023-02-14T02:13:41.065Z,14.95
2023-02-14T02:13:53.022Z,15.73
2023-02-14T02:14:05.364Z,15.77
2023-02-14T02:14:20.411Z,15.20
2023-02-14T02:14:32.800Z,14.75
2023-02-14T02:14:45.636Z,15.30
2023-02-14T02:14:59.078Z,15.45
2023-02-14T02:15:11.233Z,15.50
2023-02-14T02:15:26.934Z,15.57
2023-02-14T02:15:47.958Z,15.15
2023-02-14T02:16:02.762Z,15.35
2023-02-14T02:16:46.749Z,15.90
2023-02-14T02:17:26.080Z,15.35
2023-02-14T02:17:59.740Z,15.52
2023-02-14T02:18:20.587Z,14.90
2023-02-14T02:18:45.447Z,15.48
2023-02-14T02:19:15.537Z,15.65
2023-02-14T02:19:54.835Z,15.63
2023-02-14T02:20:34.171Z,15.00
2023-02-14T02:20:58.219Z,14.88
2023-02-14T02:21:28.951Z,14.55
2023-02-14T02:22:17.708Z,15.10
2023-02-14T02:22:59.838Z,15.68
2023-02-14T02:23:49.022Z,15.43
2023-02-14T02:24:21.901Z,15.90
2023-02-14T02:24:36.721Z,15.00
2023-02-14T02:25:33.449Z,14.95
2023-02-14T02:26:15.980Z,14.57
2023-02-14T02:26:49.288Z,14.65
2023-02-14T02:27:25.956Z,15.10
2023-02-14T02:28:03.075Z,14.10
2023-02-14T02:28:41.265Z,14.60
2023-02-14T02:28:58.808Z,14.93
2023-02-14T02:29:32.267Z,14.50
2023-02-14T02:30:15.602Z,14.82
2023-02-14T02:30:46.078Z,15.05
2023-02-14T02:31:42.630Z,14.90
2023-02-14T02:32:32.261Z,14.57
2023-02-14T02:33:06.818Z,14.77
2023-02-14T02:33:33.966Z,15.80
2023-02-14T02:34:09.111Z,15.82
2023-02-14T02:34:45.976Z,15.25
2023-02-14T02:35:15.620Z,15.27
2023-02-14T02:35:36.436Z,14.70
2023-02-14T02:35:58.686Z,15.18
2023-02-14T02:36:23.076Z,15.82
2023-02-14T02:37:27.590Z,15.45
2023-02-14T02:37:45.760Z,14.77
2023-02-14T02:38:20.166Z,15.02
2023-02-14T02:38:52.895Z,14.98
2023-02-14T02:39:12.590Z,15.95
2023-02-14T02:39:39.488Z,15.77
2023-02-14T02:40:12.790Z,14.93
2023-02-14T02:40:49.751Z,15.48
2023-02-14T02:41:04.264Z,15.63
2023-02-14T02:41:31.484Z,15.45
2023-02-14T02:41:49.044Z,15.00
2023-02-14T02:42:10.511Z,15.20
2023-02-14T02:42:41.933Z,15.40
2023-02-14T02:43:24.681Z,14.95
2023-02-14T02:44:02.341Z,15.55
2023-02-14T02:44:52.253Z,14.95
2023-02-14T02:45:04.161Z,14.75
2023-02-14T02:45:31.108Z,14.88
2023-02-14T02:46:39.578Z,14.77
2023-02-14T02:47:03.430Z,15.43
2023-02-14T02:47:26.767Z,16.05
2023-02-14T02:47:53.325Z,15.25
2023-02-14T02:48:15.714Z,15.50
2023-02-14T02:48:39.626Z,15.98
2023-02-14T02:49:09.891Z,15.32
2023-02-14T02:50:03.900Z,15.30
2023-02-14T02:50:50.035Z,15.23
2023-02-14T02:51:24.017Z,15.43
2023-02-14T02:52:09.582Z,14.55
2023-02-14T02:52:49.107Z,15.65
2023-02-14T02:53:27.476Z,15.07
2023-02-14T02:53:51.586Z,15.20
2023-02-14T02:54:32.516Z,14.85
2023-02-14T02:54:52.040Z,15.48
2023-02-14T02:55:13.058Z,15.77
2023-02-14T02:55:58.772Z,15.32
2023-02-14T02:56:38.771Z,15.18
2023-02-14T02:56:57.069Z,15.00
2023-02-14T02:57:15.293Z,15.23
2023-02-14T02:57:34.628Z,15.15
2023-02-14T02:57:51.072Z,15.02
2023-02-14T02:58:03.257Z,15.43
2023-02-14T02:58:15.270Z,15.85
2023-02-14T02:58:33.313Z,15.63
2023-02-14T02:59:20.969Z,15.10
2023-02-14T02:59:40.855Z,15.02
2023-02-14T02:59:56.451Z,15.38
2023-02-14T03:00:13.480Z,15.15
2023-02-14T03:00:25.816Z,15.32
2023-02-14T03:00:37.845Z,15.52
2023-02-14T03:00:53.217Z,15.57
2023-02-14T03:01:19.287Z,15.32
2023-02-14T03:01:36.526Z,15.25
2023-02-14T03:02:05.528Z,15.13
2023-02-14T03:02:33.160Z,16.00
2023-02-14T03:03:09.617Z,15.68
2023-02-14T03:03:43.497Z,15.48
2023-02-14T03:04:27.690Z,14.50
2023-02-14T03:04:55.786Z,15.43
2023-02-14T03:05:08.005Z,14.77
2023-02-14T03:05:20.375Z,15.27
2023-02-14T03:05:33.372Z,15.13
2023-02-14T03:05:45.479Z,15.23
2023-02-14T03:05:57.950Z,15.70
2023-02-14T03:06:09.928Z,15.40
2023-02-14T03:06:21.862Z,15.57
2023-02-14T03:06:34.505Z,15.63
2023-02-14T03:06:49.261Z,15.68
2023-02-14T03:07:21.926Z,15.70
2023-02-14T03:07:39.386Z,15.50
2023-02-14T03:07:51.496Z,15.63
2023-02-14T03:08:05.322Z,15.48
2023-02-14T03:08:17.214Z,16.08
2023-02-14T03:08:29.127Z,16.00
2023-02-14T03:08:41.042Z,16.00
2023-02-14T03:08:52.979Z,15.88
2023-02-14T03:09:35.974Z,15.63
2023-02-14T03:09:57.482Z,15.35
2023-02-14T03:10:17.367Z,15.55
2023-02-14T03:10:35.524Z,15.65
2023-02-14T03:10:47.500Z,15.77
2023-02-14T03:11:01.642Z,15.80
2023-02-14T03:11:13.981Z,16.15
2023-02-14T03:11:26.279Z,15.65
2023-02-14T03:11:46.420Z,15.55
2023-02-14T03:12:12.671Z,16.10
2023-02-14T03:12:33.535Z,15.45
2023-02-14T03:12:49.844Z,15.82
2023-02-14T03:13:40.504Z,15.70
2023-02-14T03:14:22.533Z,15.18
2023-02-14T03:14:43.268Z,15.30
2023-02-14T03:15:00.816Z,15.40
2023-02-14T03:15:22.462Z,15.05
2023-02-14T03:15:53.982Z,15.23
2023-02-14T03:16:27.353Z,15.02
2023-02-14T03:16:48.261Z,15.63
2023-02-14T03:17:11.608Z,15.50
2023-02-14T03:17:41.490Z,15.63
2023-02-14T03:18:23.707Z,15.63
2023-02-14T03:19:16.695Z,15.75
2023-02-14T03:20:14.934Z,15.48
2023-02-14T03:21:00.351Z,14.95
2023-02-14T03:21:21.699Z,15.65
2023-02-14T03:21:49.296Z,15.82
2023-02-14T03:22:06.865Z,15.65
2023-02-14T03:22:31.241Z,16.65
2023-02-14T03:22:55.573Z,15.88
2023-02-14T03:23:17.789Z,15.98
2023-02-14T03:23:36.459Z,15.23
2023-02-14T03:23:51.127Z,15.90
2023-02-14T03:24:18.182Z,15.95
2023-02-14T03:24:48.323Z,15.60
2023-02-14T03:25:09.508Z,15.38
2023-02-14T03:25:49.643Z,15.43
2023-02-14T03:26:18.285Z,15.63
2023-02-14T03:26:49.462Z,16.17
2023-02-14T03:27:14.025Z,15.13
2023-02-14T03:27:32.681Z,15.20
2023-02-14T03:27:54.638Z,15.90
2023-02-14T03:28:38.653Z,16.20
2023-02-14T03:29:01.979Z,16.08
2023-02-14T03:29:19.740Z,15.80
2023-02-14T03:29:58.419Z,15.73
2023-02-14T03:30:42.060Z,16.35
2023-02-14T03:31:07.796Z,15.52
2023-02-14T03:31:53.646Z,16.05
2023-02-14T03:32:29.895Z,14.90
2023-02-14T03:32:51.266Z,15.63
2023-02-14T03:33:16.567Z,16.13
2023-02-14T03:33:57.652Z,15.88
2023-02-14T03:34:21.308Z,15.63
2023-02-14T03:34:46.602Z,15.38
2023-02-14T03:35:32.527Z,16.10
2023-02-14T03:36:02.877Z,15.95